createdAt,value
2023-04-02T00:00:24.866Z,1004.70
2023-04-02T00:01:24.821Z,1004.71
2023-04-02T00:02:24.869Z,1004.75
2023-04-02T00:03:24.907Z,1004.71
2023-04-02T00:04:24.893Z,1004.76
2023-04-02T00:05:24.824Z,1004.80
2023-04-02T00:06:24.792Z,1004.79
2023-04-02T00:07:24.805Z,1004.74
2023-04-02T00:08:24.771Z,1004.79
2023-04-02T00:09:24.770Z,1004.85
2023-04-02T00:10:24.729Z,1004.86
2023-04-02T00:11:24.795Z,1004.80
2023-04-02T00:12:24.791Z,1004.81
2023-04-02T00:13:24.771Z,1004.87
2023-04-02T00:14:24.691Z,1004.89
2023-04-02T00:15:24.671Z,1004.87
2023-04-02T00:16:30.759Z,1004.94
2023-04-02T00:17:24.660Z,1004.90
2023-04-02T00:18:24.676Z,1004.91
2023-04-02T00:19:24.628Z,1005.03
2023-04-02T00:20:24.626Z,1005.01
2023-04-02T00:21:24.609Z,1004.95
2023-04-02T00:22:24.630Z,1005.05
2023-04-02T00:23:24.601Z,1005.07
2023-04-02T00:24:24.577Z,1005.15
2023-04-02T00:25:24.571Z,1005.14
2023-04-02T00:26:24.569Z,1005.15
2023-04-02T00:27:24.541Z,1005.06
2023-04-02T00:28:24.556Z,1005.07
2023-04-02T00:29:24.544Z,1005.16
2023-04-02T00:30:24.522Z,1005.15
2023-04-02T00:31:24.535Z,1005.19
2023-04-02T00:32:24.499Z,1005.17
2023-04-02T00:33:24.498Z,1005.23
2023-04-02T00:34:24.485Z,1005.30
2023-04-02T00:35:24.458Z,1005.28
2023-04-02T00:36:24.452Z,1005.23
2023-04-02T00:37:24.441Z,1005.35
2023-04-02T00:38:24.459Z,1005.30
2023-04-02T00:39:24.421Z,1005.34
2023-04-02T00:40:24.411Z,1005.36
2023-04-02T00:41:24.396Z,1005.36
2023-04-02T00:42:24.390Z,1005.39
2023-04-02T00:43:24.374Z,1005.39
2023-04-02T00:44:24.393Z,1005.46
2023-04-02T00:45:24.361Z,1005.45
2023-04-02T00:46:24.508Z,1005.47
2023-04-02T00:47:24.367Z,1005.52
2023-04-02T00:48:24.344Z,1005.51
2023-04-02T00:49:24.341Z,1005.53
2023-04-02T00:50:24.299Z,1005.56
2023-04-02T00:51:24.291Z,1005.59
2023-04-02T00:52:24.286Z,1005.65
2023-04-02T00:53:24.273Z,1005.59
2023-04-02T00:54:24.332Z,1005.62
2023-04-02T00:55:24.253Z,1005.59
2023-04-02T00:56:24.246Z,1005.66
2023-04-02T00:57:24.255Z,1005.69
2023-04-02T00:58:24.226Z,1005.75
2023-04-02T00:59:24.230Z,1005.75
2023-04-02T01:00:24.205Z,1005.83
2023-04-02T01:01:24.226Z,1005.75
2023-04-02T01:02:24.214Z,1005.79
2023-04-02T01:03:24.299Z,1005.89
2023-04-02T01:04:24.185Z,1005.85
2023-04-02T01:05:24.193Z,1005.87
2023-04-02T01:06:24.134Z,1005.89
2023-04-02T01:07:24.124Z,1005.85
2023-04-02T01:08:24.121Z,1005.91
2023-04-02T01:09:24.098Z,1005.95
2023-04-02T01:10:24.128Z,1005.95
2023-04-02T01:11:24.084Z,1005.95
2023-04-02T01:12:24.070Z,1005.97
2023-04-02T01:13:24.080Z,1006.09
2023-04-02T01:14:24.055Z,1006.00
2023-04-02T01:15:24.038Z,1006.06
2023-04-02T01:16:24.177Z,1006.02
2023-04-02T01:17:24.027Z,1006.08
2023-04-02T01:18:24.009Z,1006.09
2023-04-02T01:19:23.992Z,1006.10
2023-04-02T01:20:23.998Z,1006.08
2023-04-02T01:21:23.970Z,1006.18
2023-04-02T01:22:23.987Z,1006.19
2023-04-02T01:23:23.948Z,1006.17
2023-04-02T01:24:23.945Z,1006.19
2023-04-02T01:25:23.933Z,1006.23
2023-04-02T01:26:23.920Z,1006.21
2023-04-02T01:27:23.934Z,1006.27
2023-04-02T01:28:23.901Z,1006.30
2023-04-02T01:29:23.913Z,1006.26
2023-04-02T01:30:23.883Z,1006.37
2023-04-02T01:31:23.914Z,1006.37
2023-04-02T01:32:23.924Z,1006.37
2023-04-02T01:33:23.846Z,1006.40
2023-04-02T01:34:25.131Z,1006.36
2023-04-02T01:35:23.821Z,1006.45
2023-04-02T01:36:23.815Z,1006.47
2023-04-02T01:37:23.804Z,1006.47
2023-04-02T01:38:23.804Z,1006.49
2023-04-02T01:39:23.785Z,1006.54
2023-04-02T01:40:23.805Z,1006.53
2023-04-02T01:41:23.774Z,1006.52
2023-04-02T01:42:23.762Z,1006.55
2023-04-02T01:43:23.738Z,1006.60
2023-04-02T01:44:23.728Z,1006.60
2023-04-02T01:45:23.721Z,1006.59
2023-04-02T01:46:23.800Z,1006.64
2023-04-02T01:47:23.696Z,1006.68
2023-04-02T01:48:23.686Z,1006.69
2023-04-02T01:49:23.673Z,1006.79
2023-04-02T01:50:23.673Z,1006.84
2023-04-02T01:51:23.674Z,1006.79
2023-04-02T01:52:23.651Z,1006.79
2023-04-02T01:53:23.635Z,1006.85
2023-04-02T01:54:23.641Z,1006.87
2023-04-02T01:55:23.616Z,1006.89
2023-04-02T01:56:23.632Z,1006.89
2023-04-02T01:57:23.608Z,1006.87
2023-04-02T01:58:23.597Z,1006.95
2023-04-02T01:59:23.575Z,1006.93
2023-04-02T02:00:23.565Z,1007.03
2023-04-02T02:01:23.611Z,1007.00
2023-04-02T02:02:23.642Z,1007.11
2023-04-02T02:03:23.536Z,1007.04
2023-04-02T02:04:23.530Z,1007.08
2023-04-02T02:05:23.516Z,1007.08
2023-04-02T02:06:23.498Z,1007.02
2023-04-02T02:07:23.506Z,1007.06
2023-04-02T02:08:23.494Z,1007.05
2023-04-02T02:09:23.474Z,1007.06
2023-04-02T02:10:23.474Z,1007.08
2023-04-02T02:11:23.442Z,1007.13
2023-04-02T02:12:23.456Z,1007.23
2023-04-02T02:13:23.471Z,1007.28
2023-04-02T02:14:23.428Z,1007.22
2023-04-02T02:15:23.402Z,1007.23
2023-04-02T02:16:23.471Z,1007.26
2023-04-02T02:17:23.417Z,1007.31
2023-04-02T02:18:23.457Z,1007.27
2023-04-02T02:19:23.373Z,1007.29
2023-04-02T02:20:23.351Z,1007.31
2023-04-02T02:21:23.338Z,1007.26
2023-04-02T02:22:23.333Z,1007.33
2023-04-02T02:23:23.388Z,1007.30
2023-04-02T02:24:23.309Z,1007.33
2023-04-02T02:25:23.293Z,1007.31
2023-04-02T02:26:23.290Z,1007.34
2023-04-02T02:27:23.272Z,1007.37
2023-04-02T02:28:23.285Z,1007.41
2023-04-02T02:29:23.250Z,1007.41
2023-04-02T02:30:23.249Z,1007.45
2023-04-02T02:31:23.314Z,1007.52
2023-04-02T02:32:23.270Z,1007.53
2023-04-02T02:33:23.278Z,1007.55
2023-04-02T02:34:23.218Z,1007.54
2023-04-02T02:35:23.186Z,1007.53
2023-04-02T02:36:23.204Z,1007.55
2023-04-02T02:37:23.165Z,1007.57
2023-04-02T02:38:23.189Z,1007.60
2023-04-02T02:39:23.145Z,1007.62
2023-04-02T02:40:23.133Z,1007.63
2023-04-02T02:41:23.122Z,1007.70
2023-04-02T02:42:23.112Z,1007.61
2023-04-02T02:43:23.136Z,1007.76
2023-04-02T02:44:23.115Z,1007.80
2023-04-02T02:45:23.086Z,1007.78
2023-04-02T02:46:23.105Z,1007.79
2023-04-02T02:47:23.133Z,1007.90
2023-04-02T02:48:23.051Z,1007.87
2023-04-02T02:49:23.059Z,1007.85
2023-04-02T02:50:23.044Z,1007.90
2023-04-02T02:51:23.062Z,1007.92
2023-04-02T02:52:23.001Z,1007.93
2023-04-02T02:53:23.007Z,1007.97
2023-04-02T02:54:23.005Z,1007.98
2023-04-02T02:55:22.976Z,1008.01
2023-04-02T02:56:22.956Z,1007.97
2023-04-02T02:57:22.978Z,1008.06
2023-04-02T02:58:22.950Z,1008.05
2023-04-02T02:59:22.955Z,1008.01
2023-04-02T03:00:22.912Z,1008.07
2023-04-02T03:01:23.054Z,1008.12
2023-04-02T03:02:23.013Z,1008.10
2023-04-02T03:03:22.997Z,1008.15
2023-04-02T03:04:23.059Z,1008.12
2023-04-02T03:05:22.866Z,1008.17
2023-04-02T03:06:22.848Z,1008.18
2023-04-02T03:07:22.840Z,1008.17
2023-04-02T03:08:22.858Z,1008.25
2023-04-02T03:09:22.838Z,1008.29
2023-04-02T03:10:22.843Z,1008.30
2023-04-02T03:11:22.800Z,1008.32
2023-04-02T03:12:22.781Z,1008.30
2023-04-02T03:13:22.798Z,1008.33
2023-04-02T03:14:22.759Z,1008.35
2023-04-02T03:15:22.765Z,1008.41
2023-04-02T03:16:22.827Z,1008.41
2023-04-02T03:17:22.731Z,1008.42
2023-04-02T03:18:22.740Z,1008.50
2023-04-02T03:19:22.712Z,1008.47
2023-04-02T03:20:22.701Z,1008.48
2023-04-02T03:21:22.700Z,1008.50
2023-04-02T03:22:22.678Z,1008.54
2023-04-02T03:23:22.681Z,1008.54
2023-04-02T03:24:22.681Z,1008.54
2023-04-02T03:25:22.668Z,1008.56
2023-04-02T03:26:22.637Z,1008.58
2023-04-02T03:27:22.632Z,1008.66
2023-04-02T03:28:22.609Z,1008.68
2023-04-02T03:29:22.594Z,1008.66
2023-04-02T03:30:22.625Z,1008.66
2023-04-02T03:31:22.591Z,1008.74
2023-04-02T03:32:22.574Z,1008.75
2023-04-02T03:33:22.590Z,1008.76
2023-04-02T03:34:22.544Z,1008.79
2023-04-02T03:35:22.540Z,1008.76
2023-04-02T03:36:22.609Z,1008.80
2023-04-02T03:37:22.519Z,1008.84
2023-04-02T03:38:22.532Z,1008.78
2023-04-02T03:39:22.495Z,1008.83
2023-04-02T03:40:22.509Z,1008.82
2023-04-02T03:41:22.475Z,1008.85
2023-04-02T03:42:22.459Z,1008.85
2023-04-02T03:43:22.447Z,1008.86
2023-04-02T03:44:22.446Z,1008.87
2023-04-02T03:45:22.456Z,1008.95
2023-04-02T03:46:22.439Z,1008.91
2023-04-02T03:47:22.456Z,1008.93
2023-04-02T03:48:22.391Z,1008.98
2023-04-02T03:49:22.389Z,1009.12
2023-04-02T03:50:22.373Z,1009.06
2023-04-02T03:51:22.384Z,1009.05
2023-04-02T03:52:22.348Z,1009.12
2023-04-02T03:53:22.339Z,1009.17
2023-04-02T03:54:22.330Z,1009.20
2023-04-02T03:55:22.321Z,1009.25
2023-04-02T03:56:22.307Z,1009.28
2023-04-02T03:57:22.348Z,1009.30
2023-04-02T03:58:22.283Z,1009.32
2023-04-02T03:59:22.284Z,1009.32
2023-04-02T04:00:22.262Z,1009.38
2023-04-02T04:01:22.252Z,1009.37
2023-04-02T04:02:22.423Z,1009.40
2023-04-02T04:03:22.247Z,1009.47
2023-04-02T04:04:22.263Z,1009.49
2023-04-02T04:05:22.207Z,1009.47
2023-04-02T04:06:22.196Z,1009.50
2023-04-02T04:07:22.201Z,1009.53
2023-04-02T04:08:22.196Z,1009.51
2023-04-02T04:09:22.170Z,1009.54
2023-04-02T04:10:22.153Z,1009.64
2023-04-02T04:11:22.183Z,1009.60
2023-04-02T04:12:22.136Z,1009.55
2023-04-02T04:13:22.142Z,1009.65
2023-04-02T04:14:22.123Z,1009.64
2023-04-02T04:15:22.129Z,1009.72
2023-04-02T04:16:22.140Z,1009.71
2023-04-02T04:17:22.087Z,1009.74
2023-04-02T04:18:22.089Z,1009.73
2023-04-02T04:19:22.083Z,1009.83
2023-04-02T04:20:22.132Z,1009.79
2023-04-02T04:21:22.037Z,1009.81
2023-04-02T04:22:22.021Z,1009.87
2023-04-02T04:23:22.015Z,1009.88
2023-04-02T04:24:21.998Z,1009.94
2023-04-02T04:25:22.015Z,1009.92
2023-04-02T04:26:21.976Z,1009.94
2023-04-02T04:27:21.981Z,1010.00
2023-04-02T04:28:21.959Z,1009.95
2023-04-02T04:29:21.964Z,1009.99
2023-04-02T04:30:21.956Z,1010.02
2023-04-02T04:31:23.945Z,1010.09
2023-04-02T04:32:21.939Z,1010.14
2023-04-02T04:33:21.902Z,1010.07
2023-04-02T04:34:21.897Z,1010.11
2023-04-02T04:35:21.879Z,1010.08
2023-04-02T04:36:21.890Z,1010.12
2023-04-02T04:37:21.957Z,1010.16
2023-04-02T04:38:21.870Z,1010.11
2023-04-02T04:39:21.859Z,1010.14
2023-04-02T04:40:21.862Z,1010.15
2023-04-02T04:41:21.849Z,1010.16
2023-04-02T04:42:21.805Z,1010.17
2023-04-02T04:43:21.806Z,1010.20
2023-04-02T04:44:21.797Z,1010.25
2023-04-02T04:45:21.779Z,1010.30
2023-04-02T04:46:21.804Z,1010.29
2023-04-02T04:47:21.777Z,1010.30
2023-04-02T04:48:21.740Z,1010.36
2023-04-02T04:49:21.732Z,1010.39
2023-04-02T04:50:21.718Z,1010.40
2023-04-02T04:51:21.713Z,1010.46
2023-04-02T04:52:21.731Z,1010.50
2023-04-02T04:53:21.707Z,1010.52
2023-04-02T04:54:21.676Z,1010.58
2023-04-02T04:55:21.726Z,1010.52
2023-04-02T04:56:21.674Z,1010.55
2023-04-02T04:57:21.708Z,1010.57
2023-04-02T04:58:21.676Z,1010.64
2023-04-02T04:59:21.630Z,1010.64
2023-04-02T05:00:21.640Z,1010.68
2023-04-02T05:01:21.647Z,1010.67
2023-04-02T05:02:21.608Z,1010.68
2023-04-02T05:03:21.587Z,1010.72
2023-04-02T05:04:21.648Z,1010.74
2023-04-02T05:05:21.556Z,1010.77
2023-04-02T05:06:21.543Z,1010.81
2023-04-02T05:07:21.570Z,1010.84
2023-04-02T05:08:21.530Z,1010.86
2023-04-02T05:09:21.538Z,1010.92
2023-04-02T05:10:21.503Z,1010.88
2023-04-02T05:11:21.491Z,1010.93
2023-04-02T05:12:21.480Z,1010.92
2023-04-02T05:13:21.467Z,1010.99
2023-04-02T05:14:21.462Z,1010.97
2023-04-02T05:15:21.466Z,1010.98
2023-04-02T05:16:21.471Z,1011.04
2023-04-02T05:17:21.492Z,1011.07
2023-04-02T05:18:21.420Z,1011.09
2023-04-02T05:19:21.412Z,1011.09
2023-04-02T05:20:21.429Z,1011.08
2023-04-02T05:21:21.405Z,1011.21
2023-04-02T05:22:21.375Z,1011.19
2023-04-02T05:23:21.360Z,1011.23
2023-04-02T05:24:21.375Z,1011.24
2023-04-02T05:25:21.348Z,1011.23
2023-04-02T05:26:21.329Z,1011.36
2023-04-02T05:27:21.359Z,1011.34
2023-04-02T05:28:21.305Z,1011.35
2023-04-02T05:29:21.313Z,1011.44
2023-04-02T05:30:21.282Z,1011.38
2023-04-02T05:31:21.292Z,1011.46
2023-04-02T05:32:21.258Z,1011.51
2023-04-02T05:33:21.287Z,1011.50
2023-04-02T05:34:21.242Z,1011.58
2023-04-02T05:35:21.231Z,1011.56
2023-04-02T05:36:21.269Z,1011.59
2023-04-02T05:37:21.225Z,1011.63
2023-04-02T05:38:21.203Z,1011.64
2023-04-02T05:39:21.274Z,1011.65
2023-04-02T05:40:21.278Z,1011.71
2023-04-02T05:41:21.202Z,1011.70
2023-04-02T05:42:21.206Z,1011.68
2023-04-02T05:43:21.176Z,1011.77
2023-04-02T05:44:21.158Z,1011.79
2023-04-02T05:45:21.130Z,1011.66
2023-04-02T05:46:21.139Z,1011.80
2023-04-02T05:47:21.136Z,1011.80
2023-04-02T05:48:21.097Z,1011.83
2023-04-02T05:49:21.124Z,1011.82
2023-04-02T05:50:21.072Z,1011.85
2023-04-02T05:51:21.065Z,1011.91
2023-04-02T05:52:21.054Z,1011.92
2023-04-02T05:53:21.056Z,1011.94
2023-04-02T05:54:21.024Z,1011.99
2023-04-02T05:55:21.040Z,1011.96
2023-04-02T05:56:21.011Z,1011.97
2023-04-02T05:57:23.189Z,1012.11
2023-04-02T05:58:35.321Z,1012.01
2023-04-02T05:59:21.002Z,1012.00
2023-04-02T06:00:20.963Z,1012.16
2023-04-02T06:01:21.070Z,1012.10
2023-04-02T06:02:20.989Z,1012.15
2023-04-02T06:03:20.979Z,1012.16
2023-04-02T06:04:20.940Z,1012.20
2023-04-02T06:05:20.913Z,1012.20
2023-04-02T06:06:20.895Z,1012.20
2023-04-02T06:07:20.885Z,1012.19
2023-04-02T06:08:20.881Z,1012.20
2023-04-02T06:09:20.873Z,1012.22
2023-04-02T06:10:21.789Z,1012.24
2023-04-02T06:11:20.845Z,1012.29
2023-04-02T06:12:20.842Z,1012.31
2023-04-02T06:13:20.816Z,1012.31
2023-04-02T06:14:20.814Z,1012.41
2023-04-02T06:15:20.822Z,1012.38
2023-04-02T06:16:20.806Z,1012.49
2023-04-02T06:17:27.624Z,1012.44
2023-04-02T06:18:20.782Z,1012.42
2023-04-02T06:19:20.772Z,1012.43
2023-04-02T06:20:20.780Z,1012.48
2023-04-02T06:21:20.734Z,1012.37
2023-04-02T06:22:20.752Z,1012.43
2023-04-02T06:23:20.738Z,1012.45
2023-04-02T06:24:20.702Z,1012.48
2023-04-02T06:25:20.713Z,1012.48
2023-04-02T06:26:20.679Z,1012.55
2023-04-02T06:27:20.695Z,1012.58
2023-04-02T06:28:20.655Z,1012.56
2023-04-02T06:29:20.658Z,1012.58
2023-04-02T06:30:20.672Z,1012.62
2023-04-02T06:31:20.657Z,1012.66
2023-04-02T06:32:20.648Z,1012.66
2023-04-02T06:33:20.617Z,1012.64
2023-04-02T06:34:20.594Z,1012.83
2023-04-02T06:35:20.594Z,1012.80
2023-04-02T06:36:20.623Z,1012.75
2023-04-02T06:37:20.584Z,1012.79
2023-04-02T06:38:20.560Z,1012.85
2023-04-02T06:39:20.543Z,1012.77
2023-04-02T06:40:20.531Z,1012.82
2023-04-02T06:41:20.521Z,1012.91
2023-04-02T06:42:20.530Z,1012.89
2023-04-02T06:43:20.502Z,1012.94
2023-04-02T06:44:20.484Z,1012.95
2023-04-02T06:45:20.504Z,1013.00
2023-04-02T06:46:20.484Z,1012.99
2023-04-02T06:47:20.481Z,1012.99
2023-04-02T06:48:20.462Z,1013.05
2023-04-02T06:49:20.434Z,1013.07
2023-04-02T06:50:20.428Z,1013.08
2023-04-02T06:51:20.418Z,1013.11
2023-04-02T06:52:20.426Z,1013.14
2023-04-02T06:53:20.409Z,1013.14
2023-04-02T06:54:20.391Z,1013.20
2023-04-02T06:55:20.488Z,1013.16
2023-04-02T06:56:20.371Z,1013.15
2023-04-02T06:57:20.395Z,1013.19
2023-04-02T06:58:20.340Z,1013.17
2023-04-02T06:59:20.340Z,1013.22
2023-04-02T07:00:20.322Z,1013.31
2023-04-02T07:01:20.339Z,1013.31
2023-04-02T07:02:20.290Z,1013.33
2023-04-02T07:03:20.326Z,1013.36
2023-04-02T07:04:20.308Z,1013.38
2023-04-02T07:05:20.266Z,1013.41
2023-04-02T07:06:20.262Z,1013.44
2023-04-02T07:07:20.249Z,1013.47
2023-04-02T07:08:20.225Z,1013.51
2023-04-02T07:09:20.255Z,1013.53
2023-04-02T07:10:20.225Z,1013.50
2023-04-02T07:11:20.994Z,1013.56
2023-04-02T07:12:20.186Z,1013.59
2023-04-02T07:13:20.168Z,1013.57
2023-04-02T07:14:20.154Z,1013.70
2023-04-02T07:15:20.231Z,1013.73
2023-04-02T07:16:20.161Z,1013.77
2023-04-02T07:17:20.121Z,1013.82
2023-04-02T07:18:20.136Z,1013.79
2023-04-02T07:19:20.180Z,1013.75
2023-04-02T07:20:20.095Z,1013.85
2023-04-02T07:21:20.076Z,1013.88
2023-04-02T07:22:20.077Z,1013.86
2023-04-02T07:23:20.207Z,1013.90
2023-04-02T07:24:20.084Z,1013.90
2023-04-02T07:25:20.056Z,1014.00
2023-04-02T07:26:20.040Z,1013.99
2023-04-02T07:27:20.057Z,1014.01
2023-04-02T07:28:22.023Z,1014.01
2023-04-02T07:29:20.055Z,1014.00
2023-04-02T07:30:20.001Z,1014.00
2023-04-02T07:31:20.056Z,1013.99
2023-04-02T07:32:20.006Z,1014.03
2023-04-02T07:33:20.074Z,1014.07
2023-04-02T07:34:19.985Z,1014.05
2023-04-02T07:35:19.931Z,1014.09
2023-04-02T07:36:19.953Z,1014.06
2023-04-02T07:37:19.999Z,1014.11
2023-04-02T07:38:19.924Z,1014.09
2023-04-02T07:39:20.118Z,1014.01
2023-04-02T07:40:19.892Z,1014.12
2023-04-02T07:41:19.901Z,1014.14
2023-04-02T07:42:19.905Z,1014.16
2023-04-02T07:43:19.863Z,1014.18
2023-04-02T07:44:19.885Z,1014.10
2023-04-02T07:45:19.821Z,1014.14
2023-04-02T07:46:19.879Z,1014.17
2023-04-02T07:47:19.819Z,1014.24
2023-04-02T07:48:19.825Z,1014.15
2023-04-02T07:49:19.924Z,1014.23
2023-04-02T07:50:19.820Z,1014.17
2023-04-02T07:51:19.818Z,1014.23
2023-04-02T07:52:19.781Z,1014.26
2023-04-02T07:53:19.830Z,1014.32
2023-04-02T07:54:19.731Z,1014.35
2023-04-02T07:55:19.775Z,1014.31
2023-04-02T07:56:19.733Z,1014.32
2023-04-02T07:57:19.778Z,1014.33
2023-04-02T07:58:19.688Z,1014.36
2023-04-02T07:59:19.674Z,1014.41
2023-04-02T08:00:19.670Z,1014.36
2023-04-02T08:01:19.719Z,1014.39
2023-04-02T08:02:19.724Z,1014.44
2023-04-02T08:03:19.783Z,1014.44
2023-04-02T08:04:19.702Z,1014.42
2023-04-02T08:05:19.742Z,1014.52
2023-04-02T08:06:19.613Z,1014.46
2023-04-02T08:07:19.643Z,1014.47
2023-04-02T08:08:19.616Z,1014.46
2023-04-02T08:09:19.596Z,1014.49
2023-04-02T08:10:19.561Z,1014.55
2023-04-02T08:11:19.756Z,1014.55
2023-04-02T08:12:19.575Z,1014.60
2023-04-02T08:13:19.532Z,1014.58
2023-04-02T08:14:19.550Z,1014.65
2023-04-02T08:15:19.567Z,1014.69
2023-04-02T08:16:19.559Z,1014.71
2023-04-02T08:17:19.494Z,1014.71
2023-04-02T08:18:19.528Z,1014.72
2023-04-02T08:19:19.481Z,1014.73
2023-04-02T08:20:19.472Z,1014.74
2023-04-02T08:21:19.486Z,1014.75
2023-04-02T08:22:19.432Z,1014.81
2023-04-02T08:23:19.527Z,1014.81
2023-04-02T08:24:19.522Z,1014.84
2023-04-02T08:25:19.411Z,1014.91
2023-04-02T08:26:19.465Z,1014.82
2023-04-02T08:27:19.388Z,1014.82
2023-04-02T08:28:19.535Z,1014.94
2023-04-02T08:29:19.410Z,1014.91
2023-04-02T08:30:19.652Z,1014.96
2023-04-02T08:31:19.388Z,1014.88
2023-04-02T08:32:19.432Z,1014.99
2023-04-02T08:33:19.747Z,1014.92
2023-04-02T08:34:19.301Z,1015.04
2023-04-02T08:35:19.290Z,1015.01
2023-04-02T08:36:19.374Z,1015.06
2023-04-02T08:37:19.264Z,1015.11
2023-04-02T08:38:19.255Z,1015.09
2023-04-02T08:39:19.261Z,1015.13
2023-04-02T08:40:19.346Z,1015.11
2023-04-02T08:41:19.217Z,1015.10
2023-04-02T08:42:19.234Z,1015.16
2023-04-02T08:43:19.513Z,1015.23
2023-04-02T08:44:19.209Z,1015.17
2023-04-02T08:45:24.976Z,1015.26
2023-04-02T08:46:19.216Z,1015.24
2023-04-02T08:47:19.147Z,1015.26
2023-04-02T08:48:19.139Z,1015.32
2023-04-02T08:49:19.156Z,1015.32
2023-04-02T08:50:19.161Z,1015.41
2023-04-02T08:51:19.103Z,1015.40
2023-04-02T08:52:19.123Z,1015.35
2023-04-02T08:53:19.140Z,1015.37
2023-04-02T08:54:19.085Z,1015.39
2023-04-02T08:55:19.070Z,1015.40
2023-04-02T08:56:19.081Z,1015.30
2023-04-02T08:57:19.260Z,1015.44
2023-04-02T08:58:19.039Z,1015.43
2023-04-02T08:59:19.026Z,1015.53
2023-04-02T09:00:19.010Z,1015.52
2023-04-02T09:01:19.019Z,1015.58
2023-04-02T09:02:18.987Z,1015.48
2023-04-02T09:03:18.987Z,1015.50
2023-04-02T09:04:19.062Z,1015.57
2023-04-02T09:05:18.963Z,1015.51
2023-04-02T09:06:18.940Z,1015.63
2023-04-02T09:07:18.947Z,1015.58
2023-04-02T09:08:18.916Z,1015.64
2023-04-02T09:09:18.910Z,1015.66
2023-04-02T09:10:18.906Z,1015.70
2023-04-02T09:11:18.883Z,1015.72
2023-04-02T09:12:18.901Z,1015.70
2023-04-02T09:13:18.874Z,1015.82
2023-04-02T09:14:18.855Z,1015.78
2023-04-02T09:15:18.846Z,1015.74
2023-04-02T09:16:18.839Z,1015.81
2023-04-02T09:17:18.816Z,1015.80
2023-04-02T09:18:18.955Z,1015.82
2023-04-02T09:19:18.792Z,1015.81
2023-04-02T09:20:18.789Z,1015.85
2023-04-02T09:21:18.773Z,1015.84
2023-04-02T09:22:18.768Z,1015.88
2023-04-02T09:23:18.748Z,1015.91
2023-04-02T09:24:18.770Z,1015.89
2023-04-02T09:25:18.727Z,1015.85
2023-04-02T09:26:18.712Z,1015.94
2023-04-02T09:27:18.706Z,1015.88
2023-04-02T09:28:18.694Z,1015.88
2023-04-02T09:29:18.689Z,1015.86
2023-04-02T09:30:18.697Z,1015.94
2023-04-02T09:31:18.694Z,1015.90
2023-04-02T09:32:18.657Z,1015.90
2023-04-02T09:33:18.647Z,1015.93
2023-04-02T09:34:18.624Z,1015.95
2023-04-02T09:35:26.063Z,1015.93
2023-04-02T09:36:18.727Z,1015.98
2023-04-02T09:37:18.600Z,1016.02
2023-04-02T09:38:18.596Z,1016.00
2023-04-02T09:39:18.623Z,1016.03
2023-04-02T09:40:18.569Z,1016.08
2023-04-02T09:41:18.616Z,1016.07
2023-04-02T09:42:18.571Z,1016.11
2023-04-02T09:43:18.530Z,1016.03
2023-04-02T09:44:18.524Z,1016.11
2023-04-02T09:45:18.517Z,1016.13
2023-04-02T09:46:18.512Z,1016.11
2023-04-02T09:47:18.487Z,1016.14
2023-04-02T09:48:18.504Z,1016.14
2023-04-02T09:49:18.467Z,1016.13
2023-04-02T09:50:18.458Z,1016.17
2023-04-02T09:51:18.444Z,1016.21
2023-04-02T09:52:18.437Z,1016.25
2023-04-02T09:53:18.464Z,1016.19
2023-04-02T09:54:18.413Z,1016.26
2023-04-02T09:55:18.416Z,1016.31
2023-04-02T09:56:18.398Z,1016.27
2023-04-02T09:57:18.423Z,1016.32
2023-04-02T09:58:18.366Z,1016.30
2023-04-02T09:59:18.405Z,1016.29
2023-04-02T10:00:30.684Z,1016.33
2023-04-02T10:01:18.386Z,1016.36
2023-04-02T10:02:18.329Z,1016.32
2023-04-02T10:03:18.311Z,1016.36
2023-04-02T10:04:18.376Z,1016.49
2023-04-02T10:05:26.691Z,1016.50
2023-04-02T10:06:18.309Z,1016.47
2023-04-02T10:07:18.265Z,1016.45
2023-04-02T10:08:18.269Z,1016.51
2023-04-02T10:09:18.265Z,1016.52
2023-04-02T10:10:18.246Z,1016.50
2023-04-02T10:11:18.222Z,1016.54
2023-04-02T10:12:18.216Z,1016.56
2023-04-02T10:13:18.205Z,1016.60
2023-04-02T10:14:18.224Z,1016.56
2023-04-02T10:15:18.177Z,1016.56
2023-04-02T10:16:18.228Z,1016.64
2023-04-02T10:17:18.343Z,1016.63
2023-04-02T10:18:18.148Z,1016.60
2023-04-02T10:19:18.137Z,1016.63
2023-04-02T10:20:18.141Z,1016.71
2023-04-02T10:21:18.111Z,1016.75
2023-04-02T10:22:18.119Z,1016.71
2023-04-02T10:23:18.127Z,1016.73
2023-04-02T10:24:18.092Z,1016.76
2023-04-02T10:25:18.084Z,1016.80
2023-04-02T10:26:18.065Z,1016.84
2023-04-02T10:27:18.133Z,1016.86
2023-04-02T10:28:18.070Z,1016.89
2023-04-02T10:29:18.037Z,1016.86
2023-04-02T10:30:18.018Z,1016.92
2023-04-02T10:31:18.036Z,1016.96
2023-04-02T10:32:18.002Z,1017.00
2023-04-02T10:33:17.991Z,1016.99
2023-04-02T10:34:17.997Z,1016.99
2023-04-02T10:35:17.990Z,1017.00
2023-04-02T10:36:18.006Z,1016.98
2023-04-02T10:37:17.945Z,1016.99
2023-04-02T10:38:17.936Z,1017.03
2023-04-02T10:39:17.943Z,1017.02
2023-04-02T10:40:17.914Z,1017.07
2023-04-02T10:41:17.923Z,1017.01
2023-04-02T10:42:17.898Z,1017.07
2023-04-02T10:43:17.886Z,1017.12
2023-04-02T10:44:20.641Z,1017.06
2023-04-02T10:45:17.862Z,1017.04
2023-04-02T10:46:17.910Z,1017.03
2023-04-02T10:47:17.845Z,1016.94
2023-04-02T10:48:17.830Z,1017.06
2023-04-02T10:49:17.839Z,1017.04
2023-04-02T10:50:17.822Z,1016.96
2023-04-02T10:51:17.825Z,1017.00
2023-04-02T10:52:17.801Z,1017.00
2023-04-02T10:53:17.771Z,1016.98
2023-04-02T10:54:17.762Z,1016.98
2023-04-02T10:55:17.749Z,1016.92
2023-04-02T10:56:17.761Z,1016.85
2023-04-02T10:57:17.769Z,1016.97
2023-04-02T10:58:17.722Z,1016.79
2023-04-02T10:59:17.715Z,1016.80
2023-04-02T11:00:17.716Z,1016.78
2023-04-02T11:01:17.703Z,1016.77
2023-04-02T11:02:17.733Z,1016.78
2023-04-02T11:03:17.821Z,1016.78
2023-04-02T11:04:17.749Z,1016.81
2023-04-02T11:05:17.645Z,1016.84
2023-04-02T11:06:17.661Z,1016.82
2023-04-02T11:07:17.624Z,1016.91
2023-04-02T11:08:17.643Z,1016.86
2023-04-02T11:09:17.613Z,1016.88
2023-04-02T11:10:17.590Z,1016.79
2023-04-02T11:11:17.575Z,1016.88
2023-04-02T11:12:17.562Z,1016.85
2023-04-02T11:13:17.578Z,1016.89
2023-04-02T11:14:17.591Z,1016.84
2023-04-02T11:15:17.623Z,1016.86
2023-04-02T11:16:17.627Z,1016.92
2023-04-02T11:17:17.568Z,1016.99
2023-04-02T11:18:17.585Z,1016.97
2023-04-02T11:19:17.593Z,1016.94
2023-04-02T11:20:17.788Z,1017.04
2023-04-02T11:21:17.478Z,1016.97
2023-04-02T11:22:17.455Z,1016.97
2023-04-02T11:23:17.445Z,1017.06
2023-04-02T11:24:17.433Z,1017.04
2023-04-02T11:25:17.486Z,1017.06
2023-04-02T11:26:17.407Z,1017.08
2023-04-02T11:27:17.405Z,1017.07
2023-04-02T11:28:17.399Z,1017.11
2023-04-02T11:29:17.382Z,1017.10
2023-04-02T11:30:17.387Z,1017.18
2023-04-02T11:31:17.360Z,1017.16
2023-04-02T11:32:17.341Z,1017.02
2023-04-02T11:33:20.873Z,1017.21
2023-04-02T11:34:18.135Z,1017.13
2023-04-02T11:35:17.323Z,1017.22
2023-04-02T11:36:17.347Z,1017.19
2023-04-02T11:37:17.288Z,1017.18
2023-04-02T11:38:17.280Z,1017.25
2023-04-02T11:39:17.809Z,1017.23
2023-04-02T11:40:17.266Z,1017.18
2023-04-02T11:41:17.255Z,1017.18
2023-04-02T11:42:17.260Z,1017.28
2023-04-02T11:43:17.229Z,1017.22
2023-04-02T11:44:17.215Z,1017.05
2023-04-02T11:45:18.628Z,1017.19
2023-04-02T11:46:17.338Z,1017.06
2023-04-02T11:47:17.193Z,1017.14
2023-04-02T11:48:17.176Z,1017.14
2023-04-02T11:49:17.167Z,1017.21
2023-04-02T11:50:17.146Z,1017.18
2023-04-02T11:51:17.956Z,1017.29
2023-04-02T11:52:17.148Z,1017.31
2023-04-02T11:53:17.146Z,1017.32
2023-04-02T11:54:17.104Z,1017.37
2023-04-02T11:55:17.093Z,1017.42
2023-04-02T11:56:17.088Z,1017.42
2023-04-02T11:57:18.071Z,1017.40
2023-04-02T11:58:17.056Z,1017.45
2023-04-02T11:59:17.072Z,1017.47
2023-04-02T12:00:18.076Z,1017.44
2023-04-02T12:01:17.030Z,1017.44
2023-04-02T12:02:17.033Z,1017.38
2023-04-02T12:03:17.031Z,1017.56
2023-04-02T12:04:16.990Z,1017.32
2023-04-02T12:05:17.043Z,1017.35